createdAt,value
2023-04-01T00:00:18.386Z,12.93
2023-04-01T00:02:44.822Z,13.55
2023-04-01T00:05:11.380Z,12.93
2023-04-01T00:07:37.750Z,14.90
2023-04-01T00:10:04.217Z,14.10
2023-04-01T00:12:30.618Z,13.13
2023-04-01T00:14:57.235Z,14.05
2023-04-01T00:17:23.650Z,13.10
2023-04-01T00:19:50.572Z,13.13
2023-04-01T00:22:16.872Z,12.95
2023-04-01T00:24:43.224Z,13.77
2023-04-01T00:27:09.561Z,13.25
2023-04-01T00:29:35.908Z,13.18
2023-04-01T00:32:02.493Z,12.13
2023-04-01T00:34:28.905Z,14.18
2023-04-01T00:36:55.734Z,13.20
2023-04-01T00:39:22.287Z,12.80
2023-04-01T00:41:48.601Z,10.88
2023-04-01T00:44:15.135Z,11.95
2023-04-01T00:46:41.590Z,11.43
2023-04-01T00:49:07.930Z,11.65
2023-04-01T00:51:34.237Z,12.93
2023-04-01T00:54:00.704Z,11.98
2023-04-01T00:56:27.063Z,12.57
2023-04-01T00:58:53.654Z,11.48
2023-04-01T01:01:20.213Z,11.23
2023-04-01T01:03:47.482Z,12.13
2023-04-01T01:06:14.995Z,12.35
2023-04-01T01:08:42.072Z,10.30
2023-04-01T01:11:08.578Z,11.90
2023-04-01T01:13:35.366Z,11.10
2023-04-01T01:16:02.337Z,11.88
2023-04-01T01:18:29.730Z,10.45
2023-04-01T01:20:56.832Z,11.05
2023-04-01T01:23:23.462Z,10.75
2023-04-01T01:25:49.873Z,9.65
2023-04-01T01:28:16.467Z,9.63
2023-04-01T01:30:42.875Z,12.02
2023-04-01T01:33:09.300Z,10.20
2023-04-01T01:35:35.652Z,9.38
2023-04-01T01:38:02.004Z,10.93
2023-04-01T01:40:28.306Z,10.93
2023-04-01T01:42:54.699Z,10.52
2023-04-01T01:45:21.180Z,10.95
2023-04-01T01:47:47.598Z,10.55
2023-04-01T01:50:13.946Z,10.48
2023-04-01T01:52:40.324Z,10.80
2023-04-01T01:55:06.656Z,10.65
2023-04-01T01:57:32.992Z,9.80
2023-04-01T01:59:59.443Z,10.48
2023-04-01T02:02:25.764Z,10.02
2023-04-01T02:04:52.476Z,8.90
2023-04-01T02:07:19.117Z,10.73
2023-04-01T02:09:45.520Z,10.05
2023-04-01T02:12:11.895Z,9.00
2023-04-01T02:14:38.617Z,9.75
2023-04-01T02:17:04.964Z,9.95
2023-04-01T02:19:31.289Z,9.77
2023-04-01T02:21:58.146Z,8.45
2023-04-01T02:24:24.502Z,10.13
2023-04-01T02:26:50.995Z,8.68
2023-04-01T02:29:17.320Z,10.50
2023-04-01T02:31:44.247Z,9.65
2023-04-01T02:34:11.328Z,9.70
2023-04-01T02:36:37.635Z,8.88
2023-04-01T02:39:04.435Z,8.75
2023-04-01T02:41:30.933Z,9.73
2023-04-01T02:43:57.405Z,8.65
2023-04-01T02:46:23.736Z,8.82
2023-04-01T02:48:50.161Z,9.02
2023-04-01T02:51:18.260Z,9.85
2023-04-01T02:53:45.848Z,8.30
2023-04-01T02:56:12.327Z,9.27
2023-04-01T02:58:39.222Z,8.68
2023-04-01T03:01:05.670Z,7.78
2023-04-01T03:03:32.117Z,8.57
2023-04-01T03:05:59.008Z,8.18
2023-04-01T03:08:25.376Z,9.70
2023-04-01T03:10:51.999Z,7.15
2023-04-01T03:13:18.281Z,8.30
2023-04-01T03:15:44.643Z,8.43
2023-04-01T03:18:10.964Z,8.40
2023-04-01T03:20:37.834Z,8.25
2023-04-01T03:23:04.288Z,8.70
2023-04-01T03:25:31.224Z,7.85
2023-04-01T03:27:57.954Z,7.68
2023-04-01T03:30:24.679Z,8.18
2023-04-01T03:32:51.559Z,7.82
2023-04-01T03:35:17.956Z,8.30
2023-04-01T03:37:44.712Z,7.28
2023-04-01T03:40:11.099Z,8.15
2023-04-01T03:42:37.978Z,7.45
2023-04-01T03:45:04.373Z,7.25
2023-04-01T03:47:30.764Z,8.70
2023-04-01T03:49:57.650Z,7.35
2023-04-01T03:52:24.058Z,7.70
2023-04-01T03:54:50.607Z,7.80
2023-04-01T03:57:17.221Z,7.15
2023-04-01T03:59:44.157Z,7.00
2023-04-01T04:02:10.653Z,7.15
2023-04-01T04:04:37.121Z,7.30
2023-04-01T04:07:03.551Z,6.80
2023-04-01T04:09:29.930Z,7.53
2023-04-01T04:11:56.900Z,6.57
2023-04-01T04:14:23.443Z,7.10
2023-04-01T04:16:50.055Z,7.20
2023-04-01T04:19:16.589Z,7.90
2023-04-01T04:21:43.251Z,6.75
2023-04-01T04:24:09.661Z,7.72
2023-04-01T04:26:36.425Z,6.18
2023-04-01T04:29:03.054Z,7.05
2023-04-01T04:31:29.414Z,7.50
2023-04-01T04:33:55.920Z,7.10
2023-04-01T04:36:22.324Z,6.43
2023-04-01T04:38:48.956Z,8.57
2023-04-01T04:41:15.463Z,6.53
2023-04-01T04:43:41.841Z,8.27
2023-04-01T04:46:08.243Z,5.88
2023-04-01T04:48:34.650Z,6.55
2023-04-01T04:51:01.279Z,7.38
2023-04-01T04:53:28.212Z,9.13
2023-04-01T04:55:54.898Z,7.05
2023-04-01T04:58:21.223Z,6.78
2023-04-01T05:00:47.703Z,6.95
2023-04-01T05:03:15.086Z,6.95
2023-04-01T05:05:41.596Z,6.57
2023-04-01T05:08:08.329Z,7.40
2023-04-01T05:10:35.074Z,6.80
2023-04-01T05:13:01.542Z,8.00
2023-04-01T05:15:28.103Z,6.03
2023-04-01T05:17:54.598Z,5.78
2023-04-01T05:20:20.997Z,5.90
2023-04-01T05:22:47.305Z,6.22
2023-04-01T05:25:13.797Z,6.55
2023-04-01T05:27:40.222Z,6.05
2023-04-01T05:30:07.530Z,8.07
2023-04-01T05:32:34.062Z,5.45
2023-04-01T05:35:00.510Z,6.00
2023-04-01T05:37:27.386Z,5.95
2023-04-01T05:39:53.780Z,6.40
2023-04-01T05:42:20.594Z,5.93
2023-04-01T05:44:47.024Z,6.85
2023-04-01T05:47:13.457Z,7.53
2023-04-01T05:49:39.728Z,5.80
2023-04-01T05:52:06.371Z,5.82
2023-04-01T05:54:32.924Z,6.13
2023-04-01T05:56:59.642Z,6.13
2023-04-01T05:59:26.222Z,6.18
2023-04-01T06:01:53.477Z,6.22
2023-04-01T06:04:20.773Z,6.18
2023-04-01T06:06:47.401Z,6.97
2023-04-01T06:09:13.810Z,5.35
2023-04-01T06:11:41.274Z,5.72
2023-04-01T06:14:07.676Z,5.55
2023-04-01T06:16:34.207Z,6.65
2023-04-01T06:19:00.684Z,5.93
2023-04-01T06:21:27.338Z,6.88
2023-04-01T06:23:54.038Z,5.63
2023-04-01T06:26:20.683Z,6.25
2023-04-01T06:28:47.040Z,5.55
2023-04-01T06:31:13.531Z,5.68
2023-04-01T06:33:39.961Z,5.93
2023-04-01T06:36:06.975Z,5.38
2023-04-01T06:38:33.590Z,5.38
2023-04-01T06:41:00.019Z,5.82
2023-04-01T06:43:26.480Z,5.88
2023-04-01T06:45:52.862Z,6.80
2023-04-01T06:48:19.323Z,5.68
2023-04-01T06:50:45.657Z,4.72
2023-04-01T06:53:12.421Z,5.05
2023-04-01T06:55:38.916Z,4.50
2023-04-01T06:58:05.465Z,6.63
2023-04-01T07:00:32.143Z,4.95
2023-04-01T07:02:58.523Z,4.75
2023-04-01T07:05:24.965Z,6.57
2023-04-01T07:07:51.298Z,5.32
2023-04-01T07:10:17.685Z,4.60
2023-04-01T07:12:44.095Z,4.85
2023-04-01T07:15:10.477Z,4.47
2023-04-01T07:17:37.163Z,5.63
2023-04-01T07:20:03.941Z,5.45
2023-04-01T07:22:30.418Z,4.30
2023-04-01T07:24:57.746Z,4.53
2023-04-01T07:27:24.206Z,5.05
2023-04-01T07:29:50.645Z,6.32
2023-04-01T07:32:17.462Z,4.45
2023-04-01T07:34:44.000Z,5.15
2023-04-01T07:37:10.448Z,4.22
2023-04-01T07:39:37.471Z,6.00
2023-04-01T07:42:04.042Z,4.97
2023-04-01T07:44:30.470Z,4.88
2023-04-01T07:46:56.883Z,5.55
2023-04-01T07:49:23.250Z,5.85
2023-04-01T07:51:49.754Z,4.95
2023-04-01T07:54:16.128Z,5.28
2023-04-01T07:56:42.748Z,4.63
2023-04-01T07:59:09.504Z,4.45
2023-04-01T08:01:35.855Z,4.80
2023-04-01T08:04:02.411Z,5.88
2023-04-01T08:06:28.780Z,4.43
2023-04-01T08:08:55.177Z,4.00
2023-04-01T08:11:21.536Z,4.35
2023-04-01T08:13:48.354Z,4.97
2023-04-01T08:16:14.749Z,5.82
2023-04-01T08:18:41.338Z,5.15
2023-04-01T08:21:08.231Z,4.55
2023-04-01T08:23:34.608Z,3.83
2023-04-01T08:26:01.834Z,4.00
2023-04-01T08:28:28.208Z,5.07
2023-04-01T08:30:54.550Z,3.72
2023-04-01T08:33:20.931Z,5.05
2023-04-01T08:35:47.255Z,4.35
2023-04-01T08:38:14.496Z,5.35
2023-04-01T08:40:40.800Z,3.65
2023-04-01T08:43:07.280Z,3.75
2023-04-01T08:45:34.069Z,4.45
2023-04-01T08:48:00.599Z,3.30
2023-04-01T08:50:26.991Z,5.32
2023-04-01T08:52:53.748Z,4.68
2023-04-01T08:55:20.265Z,3.90
2023-04-01T08:57:46.997Z,61.78
2023-04-01T09:00:13.495Z,240.00
2023-04-01T09:02:39.898Z,192.27
2023-04-01T09:05:06.273Z,167.20
2023-04-01T09:07:32.628Z,150.88
2023-04-01T09:09:59.021Z,143.40
2023-04-01T09:12:25.560Z,133.07
2023-04-01T09:14:52.224Z,122.10
2023-04-01T09:17:18.572Z,116.97
2023-04-01T09:19:44.996Z,109.47
2023-04-01T09:22:11.360Z,102.53
2023-04-01T09:24:37.642Z,103.72
2023-04-01T09:27:04.355Z,100.65
2023-04-01T09:29:31.096Z,96.78
2023-04-01T09:31:57.894Z,87.93
2023-04-01T09:34:24.365Z,86.03
2023-04-01T09:36:50.809Z,83.68
2023-04-01T09:39:17.150Z,76.13
2023-04-01T09:41:43.489Z,71.88
2023-04-01T09:44:09.828Z,69.13
2023-04-01T09:46:36.333Z,65.80
2023-04-01T09:49:03.399Z,65.88
2023-04-01T09:51:29.848Z,63.83
2023-04-01T09:53:56.180Z,63.88
2023-04-01T09:56:23.238Z,66.40
2023-04-01T09:58:50.114Z,77.50
2023-04-01T10:01:16.582Z,350.73
2023-04-01T10:03:42.993Z,281.27
2023-04-01T10:06:09.699Z,264.70
2023-04-01T10:08:36.622Z,249.52
2023-04-01T10:11:03.336Z,239.05
2023-04-01T10:13:29.800Z,223.75
2023-04-01T10:15:56.267Z,211.63
2023-04-01T10:18:23.219Z,202.63
2023-04-01T10:20:49.532Z,192.13
2023-04-01T10:23:16.085Z,179.27
2023-04-01T10:25:42.536Z,223.13
2023-04-01T10:28:08.930Z,251.68
2023-04-01T10:30:35.242Z,235.10
2023-04-01T10:33:01.598Z,210.57
2023-04-01T10:35:28.084Z,195.02
2023-04-01T10:37:54.926Z,185.00
2023-04-01T10:40:21.243Z,171.98
2023-04-01T10:42:47.634Z,169.68
2023-04-01T10:45:14.390Z,156.23
2023-04-01T10:47:40.844Z,148.35
2023-04-01T10:50:07.273Z,146.07
2023-04-01T10:52:33.862Z,136.70
2023-04-01T10:55:00.700Z,130.93
2023-04-01T10:57:27.343Z,126.28
2023-04-01T10:59:54.051Z,122.05
2023-04-01T11:02:21.097Z,118.43
2023-04-01T11:04:47.770Z,111.10
2023-04-01T11:07:14.177Z,107.43
2023-04-01T11:09:40.768Z,104.55
2023-04-01T11:12:07.941Z,98.32
2023-04-01T11:14:34.475Z,93.40
2023-04-01T11:17:00.885Z,92.13
2023-04-01T11:19:27.507Z,88.60
2023-04-01T11:21:53.834Z,81.20
2023-04-01T11:24:20.291Z,84.82
2023-04-01T11:26:46.855Z,81.28
2023-04-01T11:29:13.319Z,239.10
2023-04-01T11:31:40.003Z,334.88
2023-04-01T11:34:06.725Z,310.83
2023-04-01T11:36:33.226Z,280.85
2023-04-01T11:39:00.039Z,254.55
2023-04-01T11:41:26.691Z,245.00
2023-04-01T11:43:53.614Z,285.88
2023-04-01T11:46:20.032Z,419.08
2023-04-01T11:48:46.529Z,348.25
2023-04-01T11:51:13.067Z,329.75
2023-04-01T11:53:39.394Z,305.75
2023-04-01T11:56:05.844Z,298.17
2023-04-01T11:58:32.211Z,399.00
2023-04-01T12:00:58.550Z,436.90
2023-04-01T12:03:26.284Z,409.85
2023-04-01T12:05:53.507Z,389.45
2023-04-01T12:08:20.058Z,374.17
2023-04-01T12:10:46.401Z,359.90
2023-04-01T12:13:12.963Z,351.10
2023-04-01T12:15:39.376Z,340.50
2023-04-01T12:18:05.843Z,339.58
2023-04-01T12:20:32.305Z,315.85
2023-04-01T12:22:58.637Z,310.63
2023-04-01T12:25:25.171Z,293.55
2023-04-01T12:27:52.454Z,288.40
2023-04-01T12:30:19.339Z,278.15
2023-04-01T12:32:45.966Z,269.13
2023-04-01T12:35:12.347Z,262.55
2023-04-01T12:37:39.196Z,257.40
2023-04-01T12:40:05.902Z,239.45
2023-04-01T12:42:32.883Z,232.88
2023-04-01T12:44:59.220Z,224.85
2023-04-01T12:47:25.618Z,225.70
2023-04-01T12:49:52.415Z,215.50
2023-04-01T12:52:18.736Z,193.85
2023-04-01T12:54:45.128Z,379.75
2023-04-01T12:57:11.531Z,282.27
2023-04-01T12:59:38.181Z,266.13
2023-04-01T13:02:04.764Z,253.98
2023-04-01T13:04:31.022Z,233.32
2023-04-01T13:06:58.363Z,232.02
2023-04-01T13:09:25.045Z,218.65
2023-04-01T13:11:51.898Z,205.77
2023-04-01T13:14:30.781Z,201.15
2023-04-01T13:16:58.506Z,190.80
2023-04-01T13:19:25.045Z,183.50
2023-04-01T13:21:51.458Z,174.55
2023-04-01T13:24:18.257Z,162.07
2023-04-01T13:26:45.017Z,159.95
2023-04-01T13:29:11.343Z,325.00
2023-04-01T13:31:38.463Z,380.73
2023-04-01T13:34:04.933Z,357.85
2023-04-01T13:36:31.296Z,350.45
2023-04-01T13:38:57.660Z,328.92
2023-04-01T13:41:24.125Z,318.10
2023-04-01T13:43:50.446Z,313.70
2023-04-01T13:46:17.220Z,298.80
2023-04-01T13:48:43.665Z,284.70
2023-04-01T13:51:10.075Z,272.83
2023-04-01T13:53:36.886Z,377.35
2023-04-01T13:56:03.274Z,437.25
2023-04-01T13:58:30.666Z,411.65
2023-04-01T14:00:57.726Z,388.98
2023-04-01T14:03:24.274Z,380.77
2023-04-01T14:05:50.677Z,363.85
2023-04-01T14:08:17.380Z,354.38
2023-04-01T14:10:43.724Z,339.10
2023-04-01T14:13:10.075Z,319.27
2023-04-01T14:15:36.956Z,310.52
2023-04-01T14:18:03.981Z,305.35
2023-04-01T14:20:30.385Z,290.13
2023-04-01T14:22:56.678Z,284.13
2023-04-01T14:25:23.024Z,270.88
2023-04-01T14:27:49.438Z,262.10
2023-04-01T14:30:16.554Z,309.83
2023-04-01T14:32:44.145Z,376.88
2023-04-01T14:35:10.611Z,394.83
2023-04-01T14:37:37.110Z,378.15
2023-04-01T14:40:03.504Z,353.58
2023-04-01T14:42:30.064Z,345.05
2023-04-01T14:44:57.115Z,325.45
2023-04-01T14:47:23.584Z,316.05
2023-04-01T14:49:49.934Z,312.33
2023-04-01T14:52:17.105Z,303.73
2023-04-01T14:54:43.411Z,288.08
2023-04-01T14:57:10.019Z,401.23
2023-04-01T14:59:37.007Z,449.02
2023-04-01T15:02:03.577Z,452.25
2023-04-01T15:04:30.255Z,435.77
2023-04-01T15:06:56.573Z,417.08
2023-04-01T15:09:23.293Z,415.02
2023-04-01T15:11:49.662Z,403.67
2023-04-01T15:14:16.366Z,408.52
2023-04-01T15:16:43.277Z,396.77
2023-04-01T15:19:09.716Z,394.95
2023-04-01T15:21:36.519Z,384.08
2023-04-01T15:24:03.130Z,381.40
2023-04-01T15:26:29.498Z,573.10
2023-04-01T15:28:56.437Z,527.70
2023-04-01T15:31:22.925Z,530.92
2023-04-01T15:33:50.027Z,524.92
2023-04-01T15:36:16.694Z,502.42
2023-04-01T15:38:43.102Z,497.27
2023-04-01T15:41:10.008Z,485.80
2023-04-01T15:43:36.483Z,467.42
2023-04-01T15:46:02.911Z,468.65
2023-04-01T15:48:29.604Z,453.80
2023-04-01T15:50:55.990Z,453.98
2023-04-01T15:53:22.418Z,439.95
2023-04-01T15:55:49.181Z,542.22
2023-04-01T15:58:15.897Z,572.28
2023-04-01T16:00:42.237Z,551.92
2023-04-01T16:03:08.848Z,541.53
2023-04-01T16:05:35.932Z,527.53
2023-04-01T16:08:02.271Z,512.38
2023-04-01T16:10:29.234Z,508.45
2023-04-01T16:12:55.686Z,506.35
2023-04-01T16:15:22.239Z,492.42
2023-04-01T16:17:49.051Z,481.55
2023-04-01T16:20:16.388Z,483.48
2023-04-01T16:22:42.740Z,474.30
2023-04-01T16:25:09.610Z,462.65
2023-04-01T16:27:36.557Z,458.05
2023-04-01T16:30:02.982Z,454.70
2023-04-01T16:32:29.751Z,441.83
2023-04-01T16:34:56.480Z,433.35
2023-04-01T16:37:22.789Z,436.45
2023-04-01T16:39:49.322Z,421.58
2023-04-01T16:42:15.819Z,419.38
2023-04-01T16:44:42.440Z,412.02
2023-04-01T16:47:08.910Z,411.48
2023-04-01T16:49:35.252Z,409.92
2023-04-01T16:52:01.589Z,397.88
2023-04-01T16:54:28.022Z,390.42
2023-04-01T16:56:54.502Z,392.08
2023-04-01T16:59:20.881Z,383.90
2023-04-01T17:01:47.688Z,375.70
2023-04-01T17:04:14.242Z,379.67
2023-04-01T17:06:41.119Z,369.88
2023-04-01T17:09:07.675Z,363.95
2023-04-01T17:11:34.038Z,357.67
2023-04-01T17:14:01.023Z,348.42
2023-04-01T17:16:27.763Z,337.38
2023-04-01T17:18:54.588Z,343.95
2023-04-01T17:21:20.942Z,327.50
2023-04-01T17:23:47.909Z,321.02
2023-04-01T17:26:15.037Z,317.92
2023-04-01T17:28:41.411Z,311.35
2023-04-01T17:31:08.253Z,307.05
2023-04-01T17:33:34.989Z,293.80
2023-04-01T17:36:01.369Z,293.52
2023-04-01T17:38:27.773Z,291.35
2023-04-01T17:40:54.126Z,287.25
2023-04-01T17:43:20.566Z,278.98
2023-04-01T17:45:47.169Z,274.98
2023-04-01T17:48:13.888Z,270.13
2023-04-01T17:50:40.352Z,267.92
2023-04-01T17:53:07.440Z,261.88
2023-04-01T17:55:34.079Z,262.98
2023-04-01T17:58:00.761Z,257.73
2023-04-01T18:00:30.126Z,252.95
2023-04-01T18:02:59.620Z,247.88
2023-04-01T18:05:26.050Z,242.43
2023-04-01T18:07:52.525Z,230.85
2023-04-01T18:10:18.960Z,234.85
2023-04-01T18:12:45.380Z,225.52
2023-04-01T18:15:11.854Z,225.85
2023-04-01T18:17:38.619Z,219.18
2023-04-01T18:20:05.003Z,219.80
2023-04-01T18:22:31.419Z,213.48
2023-04-01T18:24:57.694Z,213.85
2023-04-01T18:27:24.382Z,205.32
2023-04-01T18:29:51.687Z,206.15
2023-04-01T18:32:18.180Z,200.60
2023-04-01T18:34:44.549Z,192.15
2023-04-01T18:37:10.957Z,185.50
2023-04-01T18:39:37.344Z,195.00
2023-04-01T18:42:03.829Z,191.27
2023-04-01T18:44:30.212Z,181.38
2023-04-01T18:46:56.473Z,174.00
2023-04-01T18:49:22.895Z,181.00
2023-04-01T18:51:49.403Z,170.93
2023-04-01T18:54:15.792Z,167.02
2023-04-01T18:56:42.160Z,164.52
2023-04-01T18:59:08.552Z,161.18
2023-04-01T19:01:35.060Z,154.43
2023-04-01T19:04:01.711Z,154.93
2023-04-01T19:06:28.117Z,155.13
2023-04-01T19:08:55.066Z,152.70
2023-04-01T19:11:21.867Z,149.00
2023-04-01T19:13:48.164Z,143.60
2023-04-01T19:16:15.062Z,138.50
2023-04-01T19:18:41.468Z,141.07
2023-04-01T19:21:07.819Z,133.25
2023-04-01T19:23:34.125Z,133.68
2023-04-01T19:26:00.869Z,131.38
2023-04-01T19:28:27.342Z,127.80
2023-04-01T19:30:53.670Z,126.82
2023-04-01T19:33:20.133Z,125.10
2023-04-01T19:35:46.575Z,123.97
2023-04-01T19:38:13.178Z,121.10
2023-04-01T19:40:39.458Z,119.65
2023-04-01T19:43:05.821Z,116.75
2023-04-01T19:45:32.174Z,113.82
2023-04-01T19:47:59.004Z,111.05
2023-04-01T19:50:25.391Z,109.18
2023-04-01T19:52:51.918Z,110.82
2023-04-01T19:55:18.854Z,104.43
2023-04-01T19:57:45.288Z,104.68
2023-04-01T20:00:11.677Z,101.55
2023-04-01T20:02:38.454Z,103.13
2023-04-01T20:05:05.265Z,98.80
2023-04-01T20:07:31.635Z,93.90
2023-04-01T20:09:58.046Z,95.60
2023-04-01T20:12:24.368Z,98.15
2023-04-01T20:14:50.723Z,91.47
2023-04-01T20:17:17.231Z,89.07
2023-04-01T20:19:43.762Z,86.57
2023-04-01T20:22:10.184Z,85.43
2023-04-01T20:24:37.247Z,89.47
2023-04-01T20:27:03.672Z,80.88
2023-04-01T20:29:30.535Z,80.13
2023-04-01T20:31:57.049Z,80.30
2023-04-01T20:34:23.503Z,78.32
2023-04-01T20:36:49.878Z,74.80
2023-04-01T20:39:16.365Z,77.47
2023-04-01T20:41:43.415Z,75.47
2023-04-01T20:44:09.933Z,69.45
2023-04-01T20:46:36.253Z,71.05
2023-04-01T20:49:02.678Z,69.88
2023-04-01T20:51:29.067Z,67.85
2023-04-01T20:53:55.398Z,65.57
2023-04-01T20:56:22.065Z,68.20
2023-04-01T20:58:48.433Z,66.20
2023-04-01T21:01:14.888Z,63.05
2023-04-01T21:03:41.434Z,62.65
2023-04-01T21:06:07.822Z,61.10
2023-04-01T21:08:34.167Z,60.38
2023-04-01T21:11:00.534Z,60.00
2023-04-01T21:13:27.416Z,58.67
2023-04-01T21:15:54.157Z,52.65
2023-04-01T21:18:20.526Z,57.60
2023-04-01T21:20:46.945Z,55.65
2023-04-01T21:23:13.274Z,55.58
2023-04-01T21:25:39.710Z,55.72
2023-04-01T21:28:06.112Z,51.65
2023-04-01T21:30:32.580Z,54.75
2023-04-01T21:32:59.056Z,48.83
2023-04-01T21:35:25.419Z,48.80
2023-04-01T21:37:51.832Z,48.35
2023-04-01T21:40:18.688Z,47.10
2023-04-01T21:42:45.069Z,49.03
2023-04-01T21:45:11.955Z,43.90
2023-04-01T21:47:38.482Z,43.28
2023-04-01T21:50:05.923Z,41.55
2023-04-01T21:52:32.273Z,41.10
2023-04-01T21:54:58.653Z,40.10
2023-04-01T21:57:25.328Z,42.00
2023-04-01T21:59:51.795Z,42.45
2023-04-01T22:02:18.559Z,40.10
2023-04-01T22:04:45.289Z,38.92
2023-04-01T22:07:11.831Z,38.10
2023-04-01T22:09:38.190Z,38.70
2023-04-01T22:12:04.582Z,37.42
2023-04-01T22:14:31.038Z,37.95
2023-04-01T22:16:57.329Z,36.40
2023-04-01T22:19:23.859Z,34.50
2023-04-01T22:21:51.256Z,34.65
2023-04-01T22:24:17.798Z,33.47
2023-04-01T22:26:44.153Z,33.13
2023-04-01T22:29:10.754Z,31.48
2023-04-01T22:31:37.349Z,33.03
2023-04-01T22:34:03.697Z,33.03
2023-04-01T22:36:30.058Z,31.63
2023-04-01T22:38:56.669Z,30.55
2023-04-01T22:41:23.852Z,31.50
2023-04-01T22:43:50.198Z,29.40
2023-04-01T22:46:16.707Z,31.92
2023-04-01T22:48:43.106Z,29.15
2023-04-01T22:51:09.580Z,28.77
2023-04-01T22:53:35.956Z,28.83
2023-04-01T22:56:02.283Z,28.95
2023-04-01T22:58:28.620Z,27.65
2023-04-01T23:00:55.073Z,26.55
2023-04-01T23:03:21.777Z,27.25
2023-04-01T23:05:48.148Z,25.92
2023-04-01T23:08:14.459Z,28.65
2023-04-01T23:10:40.856Z,27.88
2023-04-01T23:13:07.437Z,24.35
2023-04-01T23:15:34.104Z,25.40
2023-04-01T23:18:01.182Z,24.30
2023-04-01T23:20:27.553Z,26.42
2023-04-01T23:22:54.019Z,24.33
2023-04-01T23:25:20.458Z,23.95
2023-04-01T23:27:46.797Z,23.23
2023-04-01T23:30:13.163Z,24.83
2023-04-01T23:32:39.470Z,23.20
2023-04-01T23:35:05.848Z,22.75
2023-04-01T23:37:32.138Z,21.02
2023-04-01T23:39:58.476Z,21.42
2023-04-01T23:42:25.012Z,21.92
2023-04-01T23:44:51.339Z,21.75
2023-04-01T23:47:17.740Z,23.08
2023-04-01T23:49:44.323Z,20.95
2023-04-01T23:52:10.684Z,20.45
2023-04-01T23:54:37.004Z,19.48
2023-04-01T23:57:03.380Z,19.50
2023-04-01T23:59:29.705Z,22.02
